Time;durP1;ratioP1;P1;durP2;ratioP2;P2;SDS_P1;SDS_P2;PMS_P1;PMS_P2;Temp;Humidity;BMP_temperature;BMP_pressure;BME280_temperature;BME280_humidity;BME280_pressure;Samples;Min_cycle;Max_cycle;Signal;HPM_P1;HPM_P2
2022/02/07 00:02:38;;;;;;;;;1.00;1.00;;;;;13.29;40.81;96504.53;4984365;28;102183;-83
2022/02/07 00:05:05;;;;;;;;;5.00;2.00;;;;;13.29;40.55;96504.53;4982445;28;102327;-83
2022/02/07 00:07:33;;;;;;;;;2.75;2.00;;;;;13.27;40.90;96502.09;4987018;27;104268;-83
2022/02/07 00:10:00;;;;;;;;;1.50;1.50;;;;;13.26;41.49;96497.75;4984626;27;103164;-83
2022/02/07 00:12:27;;;;;;;;;0.50;0.00;;;;;13.29;41.09;96501.81;4985230;27;102862;-83
2022/02/07 00:14:54;;;;;;;;;3.00;2.50;;;;;13.29;40.73;96505.34;4978127;28;103064;-83
2022/02/07 00:17:23;;;;;;;;;1.00;1.00;;;;;13.28;40.65;96505.63;4971274;28;104101;-83
2022/02/07 00:19:49;;;;;;;;;2.00;2.00;;;;;13.28;41.32;96503.69;4981701;27;104441;-83
2022/02/07 00:22:16;;;;;;;;;2.00;1.00;;;;;13.28;40.66;96508.34;4976559;28;102695;-82
2022/02/07 00:24:43;;;;;;;;;1.00;1.00;;;;;13.26;41.21;96500.47;4980159;27;102698;-83
2022/02/07 00:27:10;;;;;;;;;3.00;2.00;;;;;13.26;41.51;96500.47;4975071;27;104028;-83
2022/02/07 00:29:39;;;;;;;;;3.00;2.00;;;;;13.25;40.97;96512.38;4977910;28;102577;-83
2022/02/07 00:32:07;;;;;;;;;3.00;2.00;;;;;13.26;40.51;96511.31;4961633;28;102440;-82
2022/02/07 00:34:35;;;;;;;;;3.00;2.25;;;;;13.25;41.65;96500.72;4962586;28;103350;-83
2022/02/07 00:37:02;;;;;;;;;1.00;1.00;;;;;13.23;41.37;96509.16;4970809;28;103738;-83
2022/02/07 00:39:36;;;;;;;;;1.75;1.00;;;;;13.24;40.67;96508.03;4969712;28;102489;-83
2022/02/07 00:42:06;;;;;;;;;1.25;0.25;;;;;13.26;41.32;96500.47;4958810;27;102140;-82
2022/02/07 00:44:34;;;;;;;;;1.00;1.00;;;;;13.23;40.66;96498.28;4971385;28;103845;-83
2022/02/07 00:47:07;;;;;;;;;1.00;1.00;;;;;13.20;41.13;96501.53;4976360;27;104112;-83
2022/02/07 00:49:34;;;;;;;;;2.25;2.25;;;;;13.21;41.45;96500.44;4964013;28;102865;-83
2022/02/07 00:52:01;;;;;;;;;1.75;1.00;;;;;13.19;40.79;96496.38;4973642;28;102134;-83
2022/02/07 00:54:28;;;;;;;;;1.00;1.00;;;;;13.21;41.47;96502.34;4975464;28;102263;-83
2022/02/07 00:56:55;;;;;;;;;2.00;1.00;;;;;13.21;40.83;96508.59;4976513;28;105033;-83
2022/02/07 00:59:22;;;;;;;;;1.00;0.00;;;;;13.20;41.18;96500.69;4976173;27;102973;-82
2022/02/07 01:01:49;;;;;;;;;1.75;1.00;;;;;13.20;40.87;96514.28;4974539;28;102268;-82
2022/02/07 01:04:16;;;;;;;;;0.75;0.75;;;;;13.20;40.69;96522.41;4976109;28;102713;-82
2022/02/07 01:06:43;;;;;;;;;1.00;1.00;;;;;13.20;40.54;96514.28;4975597;28;104052;-82
2022/02/07 01:09:18;;;;;;;;;0.50;0.50;;;;;13.20;41.13;96517.00;4957689;27;103697;-83
2022/02/07 01:12:04;;;;;;;;;2.00;1.00;;;;;13.20;41.56;96508.84;4970818;27;102461;-82
2022/02/07 01:20:42;;;;;;;;;1.50;1.00;;;;;13.18;41.61;96490.13;4974880;27;102656;-82
2022/02/07 01:53:22;;;;;;;;;0.75;0.75;;;;;13.08;41.47;96422.25;4967862;27;103450;-83
2022/02/07 01:55:55;;;;;;;;;1.00;1.00;;;;;13.10;41.09;96411.97;4966843;28;102122;-83
2022/02/07 01:58:22;;;;;;;;;1.00;1.00;;;;;13.08;41.11;96416.00;4968368;27;102417;-83
2022/02/07 02:00:49;;;;;;;;;1.00;0.50;;;;;13.09;41.66;96413.03;4960515;28;104074;-82
2022/02/07 02:03:16;;;;;;;;;0.50;0.50;;;;;13.08;40.98;96411.41;4942593;28;102507;-80
2022/02/07 02:05:43;;;;;;;;;1.00;1.00;;;;;13.09;41.18;96413.03;4960391;27;102678;-82
2022/02/07 02:08:11;;;;;;;;;1.00;1.00;;;;;13.08;41.72;96405.97;4928056;27;102598;-82
2022/02/07 02:10:44;;;;;;;;;0.50;0.50;;;;;13.07;41.38;96415.19;4956744;27;104041;-83
2022/02/07 02:13:17;;;;;;;;;0.00;0.00;;;;;13.08;40.90;96411.41;4977806;27;102994;-83
2022/02/07 02:15:51;;;;;;;;;1.50;1.00;;;;;13.07;40.81;96411.66;4961983;28;102678;-82
2022/02/07 02:45:37;;;;;;;;;2.25;0.75;;;;;13.06;41.54;96423.63;4969616;28;102180;-82
2022/02/07 02:48:15;;;;;;;;;0.25;0.25;;;;;13.05;40.96;96416.56;4977669;27;102549;-83
2022/02/07 02:50:43;;;;;;;;;1.00;1.00;;;;;13.02;41.01;96398.09;4975029;27;102685;-82
2022/02/07 02:53:12;;;;;;;;;1.00;1.00;;;;;13.01;41.83;96389.16;4964056;27;104021;-83
2022/02/07 02:55:41;;;;;;;;;1.00;1.00;;;;;13.02;42.00;96388.06;4970662;27;102220;-83
2022/02/07 02:58:11;;;;;;;;;1.00;1.00;;;;;13.00;40.95;96406.50;4979047;28;102571;-83
2022/02/07 03:00:39;;;;;;;;;0.75;0.75;;;;;13.00;41.10;96430.13;4975127;27;102188;-82
2022/02/07 03:03:06;;;;;;;;;2.25;1.00;;;;;12.97;41.73;96432.25;4962515;28;104297;-83
2022/02/07 03:05:33;;;;;;;;;1.00;0.00;;;;;12.97;41.12;96431.44;4973176;28;102672;-82
2022/02/07 03:08:00;;;;;;;;;1.75;1.00;;;;;12.97;41.42;96442.31;4985548;27;102479;-83
2022/02/07 03:10:43;;;;;;;;;1.00;1.00;;;;;13.03;40.76;96435.81;4975659;28;105306;-83
2022/02/07 03:18:29;;;;;;;;;2.50;0.25;;;;;13.13;40.84;96414.16;4974397;27;102628;-82
2022/02/07 03:20:56;;;;;;;;;1.50;1.50;;;;;13.16;40.66;96410.06;4979038;27;102320;-83
2022/02/07 03:23:23;;;;;;;;;0.00;0.00;;;;;13.19;40.83;96396.78;4978289;28;104349;-83
2022/02/07 03:25:54;;;;;;;;;1.00;1.00;;;;;13.25;41.38;96400.31;4978518;28;103262;-82
2022/02/07 03:28:22;;;;;;;;;0.00;0.00;;;;;13.28;40.80;96392.44;4971482;28;102289;-82
2022/02/07 03:30:49;;;;;;;;;0.50;0.50;;;;;13.30;41.65;96403.84;4988235;27;103185;-82
2022/02/07 03:33:16;;;;;;;;;1.00;1.00;;;;;13.33;41.40;96394.31;4977128;27;104374;-82
2022/02/07 03:35:43;;;;;;;;;0.75;0.75;;;;;13.35;40.66;96398.41;4982760;27;102518;-82
2022/02/07 03:38:10;;;;;;;;;0.00;0.00;;;;;13.37;41.37;96398.16;4972353;28;103274;-83
2022/02/07 03:40:38;;;;;;;;;1.00;1.00;;;;;13.40;40.84;96395.69;4969103;28;110552;-82
2022/02/07 03:43:05;;;;;;;;;0.25;0.25;;;;;13.41;41.50;96393.81;4973837;27;103963;-82
2022/02/07 03:45:32;;;;;;;;;1.00;1.00;;;;;13.43;41.55;96390.78;4985930;27;102826;-83
2022/02/07 03:47:59;;;;;;;;;0.25;0.00;;;;;13.45;40.92;96404.91;4984389;28;103451;-82
2022/02/07 03:50:26;;;;;;;;;0.00;0.00;;;;;13.48;40.76;96420.66;4967209;28;102316;-83
2022/02/07 03:52:53;;;;;;;;;0.50;0.50;;;;;13.50;40.77;96422.03;4970173;28;104879;-83
2022/02/07 03:55:20;;;;;;;;;1.00;0.00;;;;;13.52;40.44;96413.59;4972098;27;102829;-82
2022/02/07 03:57:47;;;;;;;;;0.75;0.25;;;;;13.52;40.86;96424.44;4975406;27;102348;-83
2022/02/07 04:00:15;;;;;;;;;0.00;0.00;;;;;13.54;41.13;96430.44;4966618;27;102260;-83
2022/02/07 04:02:45;;;;;;;;;0.00;0.00;;;;;13.54;41.41;96428.53;4981813;27;104148;-83
2022/02/07 04:05:43;;;;;;;;;1.00;0.00;;;;;13.55;40.90;96429.34;4963635;27;103298;-83
2022/02/07 04:08:00;;;;;;;;;1.00;0.00;;;;;13.55;40.43;96437.50;4972011;27;102392;-83
2022/02/07 04:10:34;;;;;;;;;1.00;1.00;;;;;13.55;40.46;96434.78;4975452;27;102445;-83
2022/02/07 04:13:03;;;;;;;;;0.00;0.00;;;;;13.54;41.40;96427.72;4979591;27;104030;-82
2022/02/07 04:15:31;;;;;;;;;1.00;1.00;;;;;13.55;40.34;96426.63;4979401;28;102328;-83
2022/02/07 04:18:02;;;;;;;;;0.25;0.25;;;;;13.55;41.17;96427.47;4978373;27;102719;-82
2022/02/07 04:20:30;;;;;;;;;0.00;0.00;;;;;13.54;41.01;96433.16;4975542;28;102217;-82
2022/02/07 04:22:58;;;;;;;;;2.00;1.00;;;;;13.54;40.69;96444.81;4982744;28;104136;-83
2022/02/07 04:25:25;;;;;;;;;0.75;0.75;;;;;13.54;41.16;96433.97;4987352;27;102481;-83
2022/02/07 04:27:52;;;;;;;;;1.00;1.00;;;;;13.55;41.02;96432.88;4993260;27;102319;-82
2022/02/07 04:30:18;;;;;;;;;0.75;0.75;;;;;13.54;40.25;96431.25;4984692;27;102192;-78
2022/02/07 04:32:46;;;;;;;;;1.00;0.50;;;;;13.56;40.78;96439.09;4980056;27;104478;-83
2022/02/07 04:35:14;;;;;;;;;0.50;0.00;;;;;13.57;40.83;96446.16;4986385;27;103456;-82
2022/02/07 04:37:41;;;;;;;;;1.25;0.75;;;;;13.57;40.23;96451.59;4983799;27;102637;-83
2022/02/07 04:40:08;;;;;;;;;1.00;1.00;;;;;13.55;40.53;96457.31;4979551;27;102534;-82
2022/02/07 04:42:35;;;;;;;;;0.50;0.00;;;;;13.57;41.08;96457.03;4981538;27;104064;-83
2022/02/07 04:50:32;;;;;;;;;1.25;0.75;;;;;13.54;40.58;96468.44;4993994;27;102566;-83
2022/02/07 04:53:26;;;;;;;;;0.00;0.00;;;;;13.53;40.86;96466.81;4972286;27;109449;-83
2022/02/07 04:58:54;;;;;;;;;1.00;0.00;;;;;13.52;41.37;96460.56;4975007;28;102171;-83
2022/02/07 05:03:50;;;;;;;;;0.00;0.00;;;;;13.52;40.85;96465.19;4974524;27;104034;-83
2022/02/07 05:14:35;;;;;;;;;0.75;0.75;;;;;13.46;40.58;96488.00;4976214;28;108542;-82
2022/02/07 05:17:06;;;;;;;;;0.00;0.00;;;;;13.46;41.45;96490.72;4976132;27;102672;-82
2022/02/07 05:19:34;;;;;;;;;0.75;0.75;;;;;13.44;40.97;96506.44;4972061;27;103036;-83
2022/02/07 05:22:01;;;;;;;;;0.00;0.00;;;;;13.45;41.36;96511.63;4969512;27;102524;-83
2022/02/07 05:24:27;;;;;;;;;0.75;0.00;;;;;13.45;40.41;96508.09;4983398;27;104104;-82
2022/02/07 05:26:55;;;;;;;;;1.00;0.25;;;;;13.46;41.24;96510.53;4977906;28;102536;-82
2022/02/07 05:29:21;;;;;;;;;1.00;1.00;;;;;13.45;41.25;96524.38;4982585;27;103090;-82
2022/02/07 05:31:49;;;;;;;;;1.00;0.75;;;;;13.41;41.00;96518.66;4986372;27;102257;-83
2022/02/07 05:34:16;;;;;;;;;2.00;1.00;;;;;13.43;41.46;96521.09;4978084;27;108767;-83
2022/02/07 05:36:45;;;;;;;;;1.00;1.00;;;;;13.42;40.64;96533.84;4981315;27;102952;-83
2022/02/07 05:39:17;;;;;;;;;1.00;0.75;;;;;13.43;41.02;96540.09;4986378;28;102220;-83
2022/02/07 05:41:45;;;;;;;;;0.75;0.00;;;;;13.42;40.63;96552.84;4996589;27;101915;-82
2022/02/07 05:44:13;;;;;;;;;2.00;1.00;;;;;13.42;41.53;96611.78;4979452;27;103276;-83
2022/02/07 05:46:40;;;;;;;;;1.00;1.00;;;;;13.39;40.48;96632.94;4996490;27;101761;-82
2022/02/07 05:49:07;;;;;;;;;0.50;0.50;;;;;13.39;40.70;96640.28;5001018;27;102133;-82
2022/02/07 05:51:34;;;;;;;;;1.00;1.00;;;;;13.36;40.85;96641.63;4984661;28;102343;-83
2022/02/07 05:54:01;;;;;;;;;2.00;1.00;;;;;13.31;41.68;96641.59;4989870;27;103314;-83
2022/02/07 05:56:28;;;;;;;;;0.25;0.25;;;;;13.31;41.59;96654.38;4989279;27;101672;-83
2022/02/07 05:58:55;;;;;;;;;1.00;0.00;;;;;13.31;40.69;96649.75;4989261;27;102406;-82
2022/02/07 06:01:27;;;;;;;;;3.00;1.00;;;;;13.29;40.98;96654.63;4993345;27;102239;-83
2022/02/07 06:03:54;;;;;;;;;1.00;0.25;;;;;13.29;41.66;96661.94;4994720;28;103349;-82
2022/02/07 06:06:21;;;;;;;;;1.25;1.00;;;;;13.28;41.12;96676.63;4991707;27;102057;-83
2022/02/07 06:08:48;;;;;;;;;0.00;0.00;;;;;13.27;41.79;96681.22;4996206;28;102522;-82
2022/02/07 06:11:18;;;;;;;;;1.25;0.75;;;;;13.27;40.68;96686.66;4996936;27;103112;-83
2022/02/07 06:13:45;;;;;;;;;0.00;0.00;;;;;13.28;41.46;96696.41;4989919;27;113797;-83
2022/02/07 06:16:16;;;;;;;;;0.00;0.00;;;;;13.29;41.25;96711.63;4977044;28;101962;-83
2022/02/07 06:18:44;;;;;;;;;1.00;1.00;;;;;13.26;40.78;96723.00;4987205;27;102068;-83
2022/02/07 06:21:13;;;;;;;;;1.00;1.00;;;;;13.25;40.83;96724.09;4989747;28;102111;-83
2022/02/07 06:23:40;;;;;;;;;0.00;0.00;;;;;13.28;40.81;96742.53;4992809;28;103372;-82
2022/02/07 06:26:07;;;;;;;;;0.00;0.00;;;;;13.29;40.71;96737.94;4985711;27;101746;-83
2022/02/07 06:28:34;;;;;;;;;1.00;0.00;;;;;13.32;41.61;96749.09;4991084;27;101875;-83
2022/02/07 06:31:01;;;;;;;;;0.00;0.00;;;;;13.34;40.83;96746.94;5001246;27;102024;-82
2022/02/07 06:33:28;;;;;;;;;1.00;0.00;;;;;13.37;40.93;96751.81;4994832;27;103638;-81
2022/02/07 06:35:58;;;;;;;;;0.25;0.00;;;;;13.40;41.71;96753.22;4999535;27;102111;-82
2022/02/07 06:38:25;;;;;;;;;0.50;0.50;;;;;13.44;40.72;96758.94;4987036;27;104283;-82
2022/02/07 06:40:52;;;;;;;;;0.75;0.00;;;;;13.47;40.74;96759.22;4994698;27;102180;-82
2022/02/07 06:43:19;;;;;;;;;0.75;0.75;;;;;13.50;41.12;96771.44;5009925;27;103682;-82
2022/02/07 06:45:46;;;;;;;;;0.00;0.00;;;;;13.53;41.70;96766.31;4996731;27;102800;-83
2022/02/07 06:48:13;;;;;;;;;1.00;0.50;;;;;13.55;41.16;96779.63;4992749;27;101876;-82
2022/02/07 06:50:40;;;;;;;;;0.00;0.00;;;;;13.57;40.56;96785.59;5007533;27;101780;-83
2022/02/07 06:53:07;;;;;;;;;0.00;0.00;;;;;13.59;40.65;96786.97;5002693;27;103362;-83
2022/02/07 06:55:34;;;;;;;;;1.75;0.00;;;;;13.63;41.30;96798.13;5000380;27;102204;-82
2022/02/07 06:58:01;;;;;;;;;0.00;0.00;;;;;13.61;41.61;96811.97;4995880;28;102120;-82
2022/02/07 07:00:29;;;;;;;;;0.00;0.00;;;;;13.66;40.59;96824.75;4998930;27;102758;-83
2022/02/07 07:02:56;;;;;;;;;0.00;0.00;;;;;13.69;41.49;96826.94;4996581;28;103309;-82
2022/02/07 07:05:23;;;;;;;;;0.00;0.00;;;;;13.70;40.60;96831.28;4992721;27;102784;-82
2022/02/07 07:07:50;;;;;;;;;1.00;0.00;;;;;13.72;41.37;96840.00;4993123;28;102232;-80
2022/02/07 07:10:18;;;;;;;;;0.00;0.00;;;;;13.74;41.08;96851.41;4999785;28;102090;-82
2022/02/07 07:12:49;;;;;;;;;0.50;0.00;;;;;13.77;40.51;96853.63;4999560;27;107965;-82
2022/02/07 07:15:27;;;;;;;;;0.00;0.00;;;;;13.79;41.24;96848.72;4990465;28;101698;-82
2022/02/07 07:17:55;;;;;;;;;1.75;0.25;;;;;13.81;40.70;96849.28;4997791;27;102090;-82
2022/02/07 07:20:22;;;;;;;;;1.50;0.75;;;;;13.82;40.61;96849.00;4992530;28;102430;-82
2022/02/07 07:22:49;;;;;;;;;0.50;0.50;;;;;13.83;41.22;96852.53;5004474;28;103161;-82
2022/02/07 07:25:18;;;;;;;;;0.50;0.00;;;;;13.87;40.35;96856.34;4992430;28;102000;-83
2022/02/07 07:28:06;;;;;;;;;0.00;0.00;;;;;13.90;40.38;96857.75;4984149;28;103794;-82
2022/02/07 07:30:39;;;;;;;;;1.00;0.00;;;;;13.91;40.60;96862.94;4980163;27;101842;-82
2022/02/07 07:33:12;;;;;;;;;0.00;0.00;;;;;13.92;40.23;96864.53;4991649;27;103136;-83
2022/02/07 07:35:39;;;;;;;;;0.00;0.00;;;;;13.95;40.70;96879.50;4972118;28;102371;-82
2022/02/07 07:38:06;;;;;;;;;1.00;1.00;;;;;13.97;40.34;96885.47;4999839;27;102562;-83
2022/02/07 07:40:33;;;;;;;;;0.00;0.00;;;;;13.98;40.57;96909.69;4999803;27;101852;-83
2022/02/07 07:43:00;;;;;;;;;0.00;0.00;;;;;13.97;41.14;96905.31;4999901;27;104648;-82
2022/02/07 07:45:32;;;;;;;;;0.00;0.00;;;;;14.00;40.27;96928.44;4993050;27;101760;-82
2022/02/07 07:48:03;;;;;;;;;0.00;0.00;;;;;14.02;41.08;96948.00;5006512;27;103356;-82
2022/02/07 07:50:43;;;;;;;;;0.00;0.00;;;;;14.03;40.30;96950.47;4993840;28;101707;-82
2022/02/07 08:01:42;;;;;;;;;0.00;0.00;;;;;14.11;40.24;96965.47;4993697;28;101757;-82
2022/02/07 08:04:12;;;;;;;;;0.00;0.00;;;;;14.14;40.65;96962.19;4993993;27;103395;-82
2022/02/07 08:06:46;;;;;;;;;0.00;0.00;;;;;14.15;40.46;96958.41;4988830;28;102040;-82
2022/02/07 08:09:21;;;;;;;;;0.00;0.00;;;;;14.18;40.72;96963.34;4996255;27;101733;-83
2022/02/07 08:11:49;;;;;;;;;0.25;0.00;;;;;14.20;40.85;96985.63;4995344;28;102053;-82
2022/02/07 08:14:16;;;;;;;;;0.00;0.00;;;;;14.20;40.65;96983.72;4987433;27;103323;-83
2022/02/07 08:16:43;;;;;;;;;0.00;0.00;;;;;14.24;40.21;96995.72;5003360;27;101827;-82
2022/02/07 08:19:11;;;;;;;;;0.00;0.00;;;;;14.23;40.73;96980.47;4989260;27;101890;-82
2022/02/07 08:21:38;;;;;;;;;0.00;0.00;;;;;14.25;40.74;96991.91;4999857;27;102022;-82
2022/02/07 08:24:06;;;;;;;;;0.00;0.00;;;;;14.25;40.77;97002.78;5006803;27;103334;-83
2022/02/07 08:26:33;;;;;;;;;0.00;0.00;;;;;14.27;40.10;97010.69;4996188;27;101750;-82
2022/02/07 08:29:00;;;;;;;;;2.00;0.00;;;;;14.28;40.12;97001.44;5000582;27;102189;-82
2022/02/07 08:31:27;;;;;;;;;0.00;0.00;;;;;14.28;40.83;97006.88;4995471;28;102053;-82
2022/02/07 08:33:54;;;;;;;;;0.00;0.00;;;;;14.30;40.68;97010.16;4989822;27;104525;-83
2022/02/07 08:36:21;;;;;;;;;0.00;0.00;;;;;14.30;40.10;97016.41;4997354;27;104841;-79
2022/02/07 08:38:48;;;;;;;;;1.00;0.00;;;;;14.32;40.68;97028.94;5002757;27;102207;-83
2022/02/07 08:41:15;;;;;;;;;1.00;0.00;;;;;14.32;39.86;97038.72;4999940;28;102168;-82
2022/02/07 08:43:42;;;;;;;;;0.00;0.00;;;;;14.35;40.58;97039.28;4997935;27;103365;-83
2022/02/07 08:46:09;;;;;;;;;0.00;0.00;;;;;14.36;40.70;97060.81;4993844;27;101884;-83
2022/02/07 08:48:37;;;;;;;;;2.25;0.00;;;;;14.37;40.13;97064.31;5002192;27;102114;-82
2022/02/07 08:51:06;;;;;;;;;0.00;0.00;;;;;14.38;40.04;97069.50;5005654;27;101816;-83
2022/02/07 08:53:38;;;;;;;;;0.00;0.00;;;;;14.39;39.89;97075.75;5004335;27;103379;-82
2022/02/07 08:56:06;;;;;;;;;0.00;0.00;;;;;14.39;40.14;97064.88;5004495;27;102287;-83
2022/02/07 08:58:36;;;;;;;;;0.00;0.00;;;;;14.40;40.76;97083.66;5003895;27;102204;-82
2022/02/07 09:01:15;;;;;;;;;0.75;0.00;;;;;14.40;40.14;97080.13;4992198;27;101809;-83
2022/02/07 09:04:10;;;;;;;;;0.00;0.00;;;;;14.43;40.17;97090.47;4991802;28;104414;-82
2022/02/07 09:06:39;;;;;;;;;1.00;0.00;;;;;14.43;39.94;97095.91;4998575;27;102030;-83
2022/02/07 09:09:09;;;;;;;;;0.50;0.00;;;;;14.43;40.55;97094.00;4995909;27;101747;-82
2022/02/07 09:11:38;;;;;;;;;0.00;0.00;;;;;14.43;40.13;97109.50;5003648;27;102000;-83
2022/02/07 09:14:11;;;;;;;;;0.75;0.00;;;;;14.44;39.78;97105.72;5000480;27;103369;-83
2022/02/07 09:16:39;;;;;;;;;1.00;0.00;;;;;14.44;40.60;97116.59;5001948;27;101679;-82
2022/02/07 09:19:06;;;;;;;;;0.00;0.00;;;;;14.44;39.92;97114.69;5002233;27;105360;-83
2022/02/07 09:21:34;;;;;;;;;0.00;0.00;;;;;14.46;40.46;97128.00;4987915;27;102977;-83
2022/02/07 09:24:01;;;;;;;;;0.00;0.00;;;;;14.47;40.70;97129.66;4995752;27;103386;-83
2022/02/07 09:26:28;;;;;;;;;0.00;0.00;;;;;14.46;39.87;97128.00;5003382;27;101701;-82
2022/02/07 09:28:55;;;;;;;;;0.00;0.00;;;;;14.48;40.50;97131.31;5000886;27;101901;-83
2022/02/07 09:31:22;;;;;;;;;0.00;0.00;;;;;14.49;40.38;97138.38;4992037;27;102121;-82
2022/02/07 09:33:50;;;;;;;;;0.75;0.00;;;;;14.49;40.54;97143.81;5007017;27;103520;-82
2022/02/07 09:36:17;;;;;;;;;0.00;0.00;;;;;14.49;40.53;97139.22;5002991;27;101704;-82
2022/02/07 09:38:44;;;;;;;;;0.00;0.00;;;;;14.49;40.45;97150.09;4998576;28;102248;-83
2022/02/07 09:41:13;;;;;;;;;0.00;0.00;;;;;14.51;40.54;97152.53;5001133;27;108019;-82
2022/02/07 09:43:46;;;;;;;;;1.00;0.00;;;;;14.50;40.06;97159.06;5014504;27;104574;-82
2022/02/07 09:46:21;;;;;;;;;0.00;0.00;;;;;14.51;40.15;97168.84;5000218;27;102711;-82
2022/02/07 09:48:51;;;;;;;;;1.00;0.00;;;;;14.50;40.44;97167.22;4990750;28;102656;-83
2022/02/07 09:51:18;;;;;;;;;0.00;0.00;;;;;14.50;39.87;97164.50;5002786;27;101912;-82
2022/02/07 09:53:46;;;;;;;;;0.00;0.00;;;;;14.50;40.77;97181.63;5002244;27;103530;-83
2022/02/07 09:56:13;;;;;;;;;0.00;0.00;;;;;14.51;40.48;97177.00;4989664;27;103045;-82
2022/02/07 09:58:40;;;;;;;;;0.00;0.00;;;;;14.50;40.31;97172.69;4999679;27;101791;-83
2022/02/07 10:01:12;;;;;;;;;0.00;0.00;;;;;14.50;40.55;97191.72;4989722;27;102187;-83
2022/02/07 10:03:53;;;;;;;;;0.00;0.00;;;;;14.51;40.27;97204.22;4984744;27;102360;-82
2022/02/07 10:12:02;;;;;;;;;0.00;0.00;;;;;14.50;40.15;97208.03;4997376;27;101716;-83
2022/02/07 10:14:42;;;;;;;;;0.00;0.00;;;;;14.51;40.34;97217.81;4994620;27;108125;-82
2022/02/07 10:40:28;;;;;;;;;0.00;0.00;;;;;14.47;39.90;97252.88;4955296;28;102071;-83
2022/02/07 10:45:53;;;;;;;;;0.00;0.00;;;;;14.48;39.77;97270.84;4991555;27;102171;-83
2022/02/07 10:48:33;;;;;;;;;0.00;0.00;;;;;14.49;40.17;97264.31;4997362;27;109661;-82
2022/02/07 10:51:21;;;;;;;;;0.00;0.00;;;;;14.52;40.38;97282.00;4992328;27;101797;-82
2022/02/07 10:53:47;;;;;;;;;0.00;0.00;;;;;14.51;40.50;97293.97;4986058;28;102881;-83
2022/02/07 10:56:20;;;;;;;;;0.00;0.00;;;;;14.53;39.85;97291.81;5000583;27;103573;-83
2022/02/07 10:58:53;;;;;;;;;1.00;0.00;;;;;14.53;39.87;97308.16;4994371;27;103607;-83
2022/02/07 11:04:12;;;;;;;;;0.00;0.00;;;;;14.53;40.06;97316.31;4995302;27;101820;-82
2022/02/07 11:06:40;;;;;;;;;0.00;0.00;;;;;14.54;40.25;97320.66;5003722;27;102162;-82
2022/02/07 11:09:16;;;;;;;;;0.25;0.00;;;;;14.54;40.06;97309.78;4989295;28;103326;-82
2022/02/07 11:14:35;;;;;;;;;0.00;0.00;;;;;14.54;40.54;97318.78;5029584;27;102160;-82
2022/02/07 11:20:05;;;;;;;;;0.00;0.00;;;;;14.56;40.35;97338.38;5027485;27;108115;-83
2022/02/07 11:25:27;;;;;;;;;0.00;0.00;;;;;14.57;40.27;97334.56;5007904;27;101828;-82
2022/02/07 11:27:57;;;;;;;;;0.00;0.00;;;;;14.58;39.98;97343.56;5000555;27;102415;-83
2022/02/07 11:30:46;;;;;;;;;0.00;0.00;;;;;14.59;40.43;97351.44;5000699;27;103439;-82
2022/02/07 11:33:43;;;;;;;;;0.00;0.00;;;;;14.61;40.46;97353.91;5007743;27;101689;-83
2022/02/07 11:36:12;;;;;;;;;0.00;0.00;;;;;14.61;39.80;97353.91;5006490;27;102232;-83
2022/02/07 11:39:06;;;;;;;;;0.00;0.00;;;;;14.61;39.93;97356.63;4993905;27;101800;-82
2022/02/07 11:41:52;;;;;;;;;1.00;1.00;;;;;14.60;39.88;97369.41;5000992;27;108223;-82
2022/02/07 11:44:26;;;;;;;;;0.00;0.00;;;;;14.61;40.23;97381.94;5016236;27;101922;-83
2022/02/07 11:47:14;;;;;;;;;0.00;0.00;;;;;14.62;40.20;97382.78;5004108;27;101738;-78
2022/02/07 11:49:42;;;;;;;;;0.00;0.00;;;;;14.61;39.98;97395.53;5004913;27;101797;-83
2022/02/07 11:52:35;;;;;;;;;0.00;0.00;;;;;14.63;39.92;97417.06;4995301;28;103512;-83
2022/02/07 11:55:09;;;;;;;;;0.00;0.00;;;;;14.61;40.03;97417.31;5006336;27;101872;-82
2022/02/07 11:57:38;;;;;;;;;0.00;0.00;;;;;14.62;39.86;97420.84;5002058;27;101982;-82
2022/02/07 12:00:12;;;;;;;;;0.00;0.00;;;;;14.63;39.97;97406.19;5004931;28;101978;-82
2022/02/07 12:02:46;;;;;;;;;0.00;0.00;;;;;14.63;40.31;97417.06;5001460;27;103377;-83
2022/02/07 12:05:17;;;;;;;;;0.00;0.00;;;;;14.63;40.08;97430.66;4996463;27;102124;-82
2022/02/07 12:08:07;;;;;;;;;0.00;0.00;;;;;14.65;39.73;97431.22;5001058;28;102097;-83
2022/02/07 12:10:39;;;;;;;;;0.00;0.00;;;;;14.65;40.10;97436.66;5021640;27;101874;-83
2022/02/07 12:13:31;;;;;;;;;0.00;0.00;;;;;14.68;39.71;97438.84;5006297;27;103484;-83
2022/02/07 12:16:21;;;;;;;;;0.50;0.00;;;;;14.68;40.27;97447.84;5008840;27;101779;-83
2022/02/07 12:18:57;;;;;;;;;0.00;0.00;;;;;14.69;39.85;97454.13;4997277;27;103568;-82
2022/02/07 12:21:29;;;;;;;;;0.00;0.00;;;;;14.69;40.47;97454.13;4993217;27;102383;-82
2022/02/07 12:23:57;;;;;;;;;0.50;0.00;;;;;14.70;39.95;97455.75;4993387;27;103545;-82
2022/02/07 12:26:25;;;;;;;;;0.25;0.00;;;;;14.71;40.10;97460.13;4998999;27;102076;-82
2022/02/07 12:28:57;;;;;;;;;0.00;0.00;;;;;14.72;39.74;97470.75;5009759;27;102187;-83
2022/02/07 12:31:26;;;;;;;;;0.00;0.00;;;;;14.71;40.27;97474.56;4997455;28;102049;-82
2022/02/07 12:34:12;;;;;;;;;0.00;0.00;;;;;14.72;40.26;97464.50;5003034;27;105785;-83
2022/02/07 12:36:39;;;;;;;;;0.00;0.00;;;;;14.72;40.09;97469.94;4992717;28;102088;-81
2022/02/07 12:39:10;;;;;;;;;0.00;0.00;;;;;14.74;39.93;97473.22;4993218;27;101702;-82
2022/02/07 12:41:37;;;;;;;;;0.00;0.00;;;;;14.78;39.67;97490.69;5002711;27;101972;-83
2022/02/07 12:44:06;;;;;;;;;1.00;0.00;;;;;14.80;40.04;97488.53;5003790;27;103564;-83
2022/02/07 12:46:33;;;;;;;;;0.00;0.00;;;;;14.82;40.02;97490.97;4991055;28;102027;-82
2022/02/07 12:49:04;;;;;;;;;0.00;0.00;;;;;14.81;39.99;97495.63;5002307;27;102043;-83
2022/02/07 12:51:32;;;;;;;;;1.00;0.00;;;;;14.85;39.78;97501.38;4999662;28;101755;-82
2022/02/07 12:53:59;;;;;;;;;0.00;0.00;;;;;14.89;40.06;97492.44;4994578;28;105055;-82
2022/02/07 12:56:28;;;;;;;;;0.00;0.00;;;;;14.91;39.82;97503.88;4996277;27;101772;-83
2022/02/07 12:58:55;;;;;;;;;0.00;0.00;;;;;14.91;40.13;97503.88;4996712;27;102292;-83
2022/02/07 13:01:26;;;;;;;;;0.00;0.00;;;;;14.92;40.28;97510.16;5008364;27;102949;-83
2022/02/07 13:03:55;;;;;;;;;0.00;0.00;;;;;14.91;39.83;97528.38;5010829;27;107907;-83
2022/02/07 13:06:24;;;;;;;;;0.00;0.00;;;;;14.91;39.70;97528.38;5001958;27;102610;-83
2022/02/07 13:09:17;;;;;;;;;0.00;0.00;;;;;14.91;40.11;97533.00;5005562;27;102439;-83
2022/02/07 13:11:49;;;;;;;;;0.00;0.00;;;;;14.94;39.65;97527.91;4998744;28;101808;-82
2022/02/07 13:14:17;;;;;;;;;0.00;0.00;;;;;14.96;39.98;97516.72;5007369;27;103325;-83
2022/02/07 13:16:44;;;;;;;;;0.50;0.00;;;;;15.00;40.15;97518.69;4998020;28;102125;-83
2022/02/07 13:19:13;;;;;;;;;1.00;0.00;;;;;15.05;39.80;97524.19;5000590;28;102097;-83
2022/02/07 13:21:42;;;;;;;;;0.00;0.00;;;;;15.10;40.04;97534.31;5006933;27;102209;-82
2022/02/07 13:24:15;;;;;;;;;0.00;0.00;;;;;15.15;39.98;97535.19;5001694;27;102371;-83
2022/02/07 13:26:50;;;;;;;;;0.00;0.00;;;;;15.19;39.96;97540.94;4996918;27;102676;-83
2022/02/07 13:29:19;;;;;;;;;0.00;0.00;;;;;15.23;39.96;97549.44;4995439;27;102076;-83
2022/02/07 13:31:57;;;;;;;;;1.00;0.00;;;;;15.27;39.83;97545.94;4997996;27;102216;-83
2022/02/07 13:34:29;;;;;;;;;0.00;0.00;;;;;15.32;39.60;97558.78;4988093;27;107891;-83
2022/02/07 13:37:07;;;;;;;;;0.00;0.00;;;;;15.36;39.94;97562.63;5003260;27;102141;-82
2022/02/07 13:39:57;;;;;;;;;0.00;0.00;;;;;15.35;39.53;97574.63;5006471;27;102066;-83
2022/02/07 13:42:31;;;;;;;;;0.75;0.00;;;;;15.36;39.75;97576.25;4989840;28;102365;-81
2022/02/07 13:45:12;;;;;;;;;0.00;0.00;;;;;15.33;39.87;97590.41;4989221;27;103693;-83
2022/02/07 13:47:44;;;;;;;;;0.00;0.00;;;;;15.33;39.92;97595.84;4994341;27;102076;-83
2022/02/07 13:50:12;;;;;;;;;0.00;0.00;;;;;15.31;39.82;97598.81;5000112;27;101723;-82
2022/02/07 13:52:41;;;;;;;;;0.00;0.00;;;;;15.30;39.82;97607.25;4994986;28;103202;-83
2022/02/07 13:55:19;;;;;;;;;0.00;0.00;;;;;15.29;39.85;97622.78;4993565;27;104380;-82
2022/02/07 13:57:48;;;;;;;;;0.00;0.00;;;;;15.29;39.71;97627.38;4986209;27;102102;-83
2022/02/07 14:00:16;;;;;;;;;0.00;0.00;;;;;15.28;39.74;97644.81;4993433;28;101737;-83